• Join FlightAware (Why Join?)
  • Login
  • US Flag 
03:48AM EDT


 

Airport Tracker/Info


-or-


 

Live Flight TrackerFlight Track Log ✈ AFL150 ✈ 03-May-2014 ✈ UUEE / SVO - MUHA / HAV

Flight Track Log - Related Links

Times and Time Zones

All times are in EDT time to prevent confusion due to time zone crossing. See the AFL150 flight status page for this flight to view local times or setup timezone preferences in your user account.

Time Position Orientation Groundspeed Altitude Reporting Facility
EDT Latitude Longitude Course Direction KTS MPH feet Rate Location/Type
07:09AM 56.1535 36.8693 307° West  Level Estimated
07:10AM 56.2253 36.6937 306° West  Level Estimated
07:11AM 56.2968 36.5174 306° West  Level Estimated
07:12AM 56.3681 36.3405 306° West  Level Estimated
07:13AM 56.4391 36.1629 306° West  Level Estimated
07:14AM 56.5098 35.9847 306° West  Level Estimated
07:15AM 56.5804 35.8058 306° West  Level Estimated
07:16AM 56.6506 35.6262 305° West  Level Estimated
07:17AM 56.7206 35.4460 305° West  Level Estimated
07:18AM 56.7903 35.2651 305° West  Level Estimated
07:19AM 56.8598 35.0835 305° West  Level Estimated
07:20AM 56.9290 34.9013 305° West  Level Estimated
07:21AM 56.9980 34.7183 305° West  Level Estimated
07:22AM 57.0666 34.5347 305° West  Level Estimated
07:23AM 57.1350 34.3504 304° West  Level Estimated
07:24AM 57.2032 34.1655 304° West  Level Estimated
07:25AM 57.2710 33.9798 304° West  Level Estimated
07:26AM 57.3386 33.7935 304° West  Level Estimated
07:27AM 57.4059 33.6064 304° West  Level Estimated
07:28AM 57.4730 33.4187 304° West  Level Estimated
07:29AM 57.5397 33.2304 303° West  Level Estimated
07:30AM 57.6062 33.0413 303° West  Level Estimated
07:31AM 57.6724 32.8515 303° West  Level Estimated
07:32AM 57.7383 32.6610 303° West  Level Estimated
07:33AM 57.8039 32.4698 303° West  Level Estimated
07:34AM 57.8692 32.2780 303° West  Level Estimated
07:35AM 57.9342 32.0854 303° West  Level Estimated
07:36AM 57.9990 31.8922 302° West  Level Estimated
07:37AM 58.0634 31.6982 302° West  Level Estimated
07:38AM 58.1276 31.5036 302° West  Level Estimated
07:39AM 58.1914 31.3082 302° West  Level Estimated
07:40AM 58.2550 31.1122 302° West  Level Estimated
07:40AM 56.5719 31.0877 294° West 412 474 34,000  Level FlightAware ADS-B (EVDA / DGP)
07:41AM 56.6355 30.8944 309° West 418 481 34,000  Level FlightAware ADS-B (EVDA / DGP)
07:42AM 56.7114 30.7327 310° West 421 484 34,000  Level FlightAware ADS-B (EVDA / DGP)
07:43AM 56.7776 30.5585 305° West 421 484 34,000  Level FlightAware ADS-B (EVDA / DGP)
07:44AM 56.8514 30.3618 304° West 421 484 34,000  Level FlightAware ADS-B (EVDA / DGP)
07:45AM 56.9096 30.2037 304° West 420 483 34,000  Level FlightAware ADS-B (EVDA / DGP)
07:46AM 56.9687 30.0420 304° West 418 481 34,000  Level FlightAware ADS-B (EVDA / DGP)
07:47AM 57.0520 29.8121 304° West 418 481 34,000  Level FlightAware ADS-B (EVDA / DGP)
07:48AM 57.1180 29.6285 303° West 418 481 34,000  Level FlightAware ADS-B (EVDA / DGP)
07:49AM 57.1808 29.4526 303° West 419 482 34,000  Level FlightAware ADS-B (EVDA / DGP)
07:50AM 57.2455 29.2700 303° West 421 484 34,000  Level FlightAware ADS-B (EVDA / DGP)
07:51AM 57.3092 29.0887 303° West 424 488 34,000  Level FlightAware ADS-B (EVDA / DGP)
07:52AM 57.3742 28.9031 303° West 426 490 34,000  Level FlightAware ADS-B (EVDA / DGP)
07:53AM 57.4381 28.7188 303° West 425 489 34,000  Level FlightAware ADS-B (EVDA / DGP)
07:54AM 57.5010 28.5361 303° West 423 487 34,000  Level FlightAware ADS-B (EVDA / DGP)
07:55AM 57.5581 28.3692 302° West 423 487 34,000  Level FlightAware ADS-B (EVDA / DGP)
07:56AM 57.6247 28.1723 302° West 422 486 34,000  Level FlightAware ADS-B (EVDA / DGP)
07:57AM 57.6787 28.0117 302° West 423 487 34,000  Level FlightAware ADS-B (EVDA / DGP)
07:58AM 57.7090 27.9212 302° West 423 487 34,000  Level FlightAware ADS-B (EVDA / DGP)
07:58AM 57.7501 27.7982 302° West 426 490 34,000  Level FlightAware ADS-B (EVDA / DGP)
07:59AM 57.8119 27.6120 302° West 427 491 34,000  Level FlightAware ADS-B (EVDA / DGP)
08:00AM 57.8594 27.4190 291° West 422 486 34,000  Level FlightAware ADS-B (EVDA / DGP)
08:01AM 57.9014 27.2108 291° West 422 486 34,000  Level FlightAware ADS-B (EVDA / DGP)
08:02AM 57.9171 27.1328 291° West 421 484 34,000  Level FlightAware ADS-B (EVDA / DGP)
08:03AM 57.9639 26.8990 291° West 421 484 34,000  Level FlightAware ADS-B (EVDA / DGP)
08:04AM 57.9991 26.7214 290° West 422 486 34,000  Level FlightAware ADS-B (EVDA / DGP)
08:05AM 58.0465 26.4791 290° West 422 486 34,000  Level FlightAware ADS-B (EVDA / DGP)
08:06AM 58.0813 26.2999 290° West 424 488 34,000  Level FlightAware ADS-B (EVDA / DGP)
08:07AM 58.1284 26.0540 290° West 423 487 34,000  Level FlightAware ADS-B (EVDA / DGP)
08:08AM 58.1611 25.8824 290° West 425 489 34,000  Level FlightAware ADS-B (EVDA / DGP)
08:08AM 58.1848 25.7564 290° West 425 489 34,000  Level FlightAware ADS-B (EVDA / DGP)
08:09AM 58.2048 25.6494 289° West 427 491 34,000  Level FlightAware ADS-B (EVDA / DGP)
08:10AM 58.2451 25.4324 289° West 430 495 34,000  Level FlightAware ADS-B (EVDA / DGP)
08:11AM 58.2722 25.2850 289° West 432 497 34,000  Level FlightAware ADS-B (EFHN)
08:11AM 58.2927 25.1728 289° West 431 496 34,000  Level FlightAware ADS-B (EFHN)
08:12AM 58.3165 25.0409 289° West 432 497 34,000  Level FlightAware ADS-B (EFHN)
08:12AM 58.3382 24.9202 289° West 431 496 34,000  Level FlightAware ADS-B (EVDA / DGP)
08:13AM 58.3618 24.7881 289° West 431 496 34,000  Level FlightAware ADS-B (EFHN)
08:14AM 58.3813 24.6788 289° West 430 495 34,000  Level FlightAware ADS-B (EFHN)
08:14AM 58.4029 24.5566 288° West 430 495 34,000  Level FlightAware ADS-B (EFHN)
08:15AM 58.4342 24.3710 286° West 427 491 34,000  Level FlightAware ADS-B (EFHN)
08:16AM 58.4597 24.1964 286° West 428 493 34,000  Level FlightAware ADS-B (EFHN)
08:16AM 58.4805 24.0577 286° West 430 495 34,000  Level FlightAware ADS-B (EFHN)
08:17AM 58.5147 23.8287 286° West 431 496 34,000  Level FlightAware ADS-B (EFHN)
08:18AM 58.5440 23.6299 286° West 430 495 34,000  Level FlightAware ADS-B (EFHN)
08:19AM 58.5704 23.4480 286° West 431 496 34,000  Level FlightAware ADS-B (EFHN)
08:20AM 58.5902 23.3117 286° West 432 497 34,000  Level FlightAware ADS-B (EFHN)
08:21AM 58.6385 22.9699 285° West 432 497 34,000  Level FlightAware ADS-B (EFHN)
08:22AM 58.6543 22.8574 285° West 431 496 34,000  Level FlightAware ADS-B (EFHN)
08:22AM 58.6695 22.7482 285° West 431 496 34,000  Level FlightAware ADS-B (EFHN)
08:23AM 58.6849 22.6365 285° West 430 495 34,000  Level FlightAware ADS-B (EFHN)
08:23AM 58.7004 22.5227 285° West 429 494 34,000  Level FlightAware ADS-B (EFHN)
08:24AM 58.7251 22.3397 285° West 430 495 34,000  Level FlightAware ADS-B (EFHN)
08:25AM 58.7427 22.2100 285° West 429 494 34,000  Level FlightAware ADS-B (EFHN)
08:25AM 58.7591 22.0867 284° West 428 493 34,000  Level FlightAware ADS-B (EFHN)
08:26AM 58.7746 21.9697 284° West 428 493 34,000  Level FlightAware ADS-B (EFHN)
08:27AM 58.7985 21.7869 284° West 429 494 34,000  Level FlightAware ADS-B (EFHN)
08:27AM 58.8155 21.6552 284° West 430 495 34,000  Level FlightAware ADS-B (EFHN)
08:28AM 58.8354 21.4985 284° West 430 495 34,000  Level FlightAware ADS-B (ESKB)
08:29AM 58.8457 21.4185 289° West 432 497 34,000  Level FlightAware ADS-B (EFHN)
08:33AM 59.0031 20.4720 287° West 435 501 34,000  Level FlightAware ADS-B (EFHN)
08:34AM 59.0406 20.2373 287° West 435 501 34,000  Level FlightAware ADS-B (ESKB)
08:34AM 59.0560 20.1398 287° West 434 499 34,000  Level FlightAware ADS-B (ESKB)
08:35AM 59.0796 19.9899 287° West 435 501 34,000  Level FlightAware ADS-B (ESKB)
08:36AM 59.1116 19.7840 287° West 437 503 34,000  Level FlightAware ADS-B (ESKB)
08:36AM 59.1334 19.6420 287° West 438 504 34,000  Level FlightAware ADS-B (ESKB)
08:37AM 59.1568 19.4887 287° West 437 503 34,000  Level FlightAware ADS-B (ESKB)
08:38AM 59.1800 19.3356 286° West 436 502 34,000  Level FlightAware ADS-B (ESKB)
08:38AM 59.2008 19.1960 286° West 435 501 34,000  Level FlightAware ADS-B (ESKB)
08:39AM 59.2250 19.0331 286° West 436 502 34,000  Level FlightAware ADS-B (ESKB)
08:40AM 59.2474 18.8807 286° West 435 501 34,000  Level FlightAware ADS-B (ESKB)
08:40AM 59.2690 18.7316 286° West 432 497 34,000  Level FlightAware ADS-B (ESKB)
08:41AM 59.2905 18.5835 286° West 432 497 34,000  Level FlightAware ADS-B (ESKB)
08:42AM 59.3127 18.4281 286° West 433 498 34,000  Level FlightAware ADS-B (ESKB)
08:42AM 59.3345 18.2736 286° West 435 501 34,000  Level FlightAware ADS-B (ESKB)
08:43AM 59.3530 18.1413 285° West 434 499 34,000  Level FlightAware ADS-B (ESKB)
08:44AM 59.3750 17.9837 285° West 432 497 34,000  Level FlightAware ADS-B (ESKB)
08:44AM 59.3974 17.8213 285° West 431 496 34,000  Level FlightAware ADS-B (ESKB)
08:45AM 59.4177 17.6723 285° West 428 493 34,000  Level FlightAware ADS-B (ESKB)
08:46AM 59.4383 17.5199 285° West 427 491 34,000  Level FlightAware ADS-B (ESKB)
08:46AM 59.4578 17.3731 285° West 427 491 34,000  Level FlightAware ADS-B (ESKB)
08:47AM 59.4780 17.2212 285° West 429 494 34,000  Level FlightAware ADS-B (ESKB)
08:48AM 59.4961 17.0823 284° West 429 494 34,000  Level FlightAware ADS-B (ESKB)
08:48AM 59.5175 16.9182 284° West 429 494 34,000  Level FlightAware ADS-B (ESKB)
08:49AM 59.5373 16.7633 284° West 429 494 34,000  Level FlightAware ADS-B (ESKB)
08:50AM 59.5568 16.6099 284° West 430 495 34,000  Level FlightAware ADS-B (ESKB)
08:50AM 59.5756 16.4613 284° West 430 495 34,000  Level FlightAware ADS-B (ESKB)
08:51AM 59.5945 16.3098 284° West 431 496 34,000  Level FlightAware ADS-B (ESKB)
08:52AM 59.6141 16.1512 284° West 432 497 34,000  Level FlightAware ADS-B (ESKB)
08:52AM 59.6323 16.0005 284° West 431 496 34,000  Level FlightAware ADS-B (ESKB)
08:53AM 59.6511 15.8449 283° West 430 495 34,000  Level FlightAware ADS-B (ESKB)
08:54AM 59.6687 15.6961 283° West 429 494 34,000  Level FlightAware ADS-B (ESKB)
08:56AM 59.7356 15.3013 289° West  Level Estimated
08:57AM 59.7737 15.0728 288° West  Level Estimated
08:58AM 59.8114 14.8437 288° West  Level Estimated
08:59AM 59.8486 14.6142 288° West  Level Estimated
09:00AM 59.8855 14.3841 288° West  Level Estimated
09:01AM 59.9220 14.1536 288° West  Level Estimated
09:02AM 59.9581 13.9225 287° West  Level Estimated
09:03AM 59.9937 13.6909 287° West  Level Estimated
09:04AM 60.0290 13.4588 287° West  Level Estimated
09:05AM 60.0639 13.2263 287° West  Level Estimated
09:06AM 60.0983 12.9932 287° West  Level Estimated
09:07AM 60.1323 12.7597 286° West  Level Estimated
09:08AM 60.1660 12.5257 286° West  Level Estimated
09:09AM 60.1992 12.2912 286° West  Level Estimated
09:10AM 60.2320 12.0562 286° West  Level Estimated
09:11AM 60.2643 11.8207 286° West  Level Estimated
09:12AM 60.2963 11.5848 285° West  Level Estimated
09:13AM 60.3279 11.3485 285° West  Level Estimated
09:14AM 60.3590 11.1117 285° West  Level Estimated
09:15AM 60.3897 10.8744 285° West  Level Estimated
09:16AM 60.4199 10.6367 285° West  Level Estimated
09:17AM 60.4498 10.3986 284° West  Level Estimated
09:18AM 60.4792 10.1600 284° West  Level Estimated
09:19AM 60.5082 9.9209 284° West  Level Estimated
09:20AM 60.5368 9.6815 284° West  Level Estimated
09:21AM 60.5650 9.4417 284° West  Level Estimated
09:22AM 60.5927 9.2014 283° West  Level Estimated
09:23AM 60.6200 8.9607 283° West  Level Estimated
09:24AM 60.6468 8.7196 283° West  Level Estimated
09:25AM 60.6732 8.4781 283° West  Level Estimated
09:26AM 60.6992 8.2362 282° West  Level Estimated
09:27AM 60.7248 7.9940 282° West  Level Estimated
09:28AM 60.7499 7.7513 282° West  Level Estimated
09:29AM 60.7745 7.5083 282° West  Level Estimated
09:30AM 60.7988 7.2649 282° West  Level Estimated
09:31AM 60.8225 7.0212 281° West  Level Estimated
09:32AM 60.8459 6.7770 281° West  Level Estimated
09:33AM 60.8688 6.5325 281° West  Level Estimated
09:34AM 60.8912 6.2877 281° West  Level Estimated
09:35AM 60.9132 6.0426 281° West  Level Estimated
09:36AM 60.9348 5.7971 280° West  Level Estimated
09:37AM 60.9559 5.5512 280° West  Level Estimated
09:38AM 60.9766 5.3051 280° West  Level Estimated
09:39AM 60.9968 5.0586 280° West  Level Estimated
09:40AM 61.0166 4.8118 279° West  Level Estimated
09:41AM 61.0359 4.5648 279° West  Level Estimated
09:42AM 61.0548 4.3174 279° West  Level Estimated
09:43AM 61.0732 4.0697 279° West  Level Estimated
09:44AM 61.0912 3.8217 279° West  Level Estimated
09:45AM 61.1087 3.5735 278° West  Level Estimated
09:46AM 61.1257 3.3250 278° West  Level Estimated
09:47AM 61.1423 3.0762 278° West  Level Estimated
09:48AM 61.1585 2.8272 278° West  Level Estimated
09:49AM 61.1741 2.5779 278° West  Level Estimated
09:50AM 61.1894 2.3284 277° West  Level Estimated
09:51AM 61.2041 2.0786 277° West  Level Estimated
09:52AM 61.2184 1.8286 277° West  Level Estimated
09:53AM 61.2323 1.5784 277° West  Level Estimated
09:54AM 61.2456 1.3280 276° West  Level Estimated
09:55AM 61.2586 1.0774 276° West  Level Estimated
09:56AM 61.2710 0.8265 276° West  Level Estimated
09:57AM 61.2830 0.5755 276° West  Level Estimated
09:58AM 61.2945 0.3242 276° West  Level Estimated
09:59AM 61.3056 0.0728 275° West  Level Estimated
10:00AM 61.3162 -0.1788 275° West  Level Estimated
10:01AM 61.3263 -0.4305 275° West  Level Estimated
10:02AM 61.3360 -0.6824 275° West  Level Estimated
10:03AM 61.3452 -0.9345 274° West  Level Estimated
10:04AM 61.3539 -1.1867 274° West  Level Estimated
10:05AM 61.3622 -1.4390 274° West  Level Estimated
10:06AM 61.3700 -1.6915 274° West  Level Estimated
10:07AM 61.3773 -1.9441 274° West  Level Estimated
10:08AM 61.3842 -2.1968 273° West  Level Estimated
10:09AM 61.3906 -2.4496 273° West  Level Estimated
10:10AM 61.3965 -2.7025 273° West  Level Estimated
10:11AM 61.4020 -2.9555 273° West  Level Estimated
10:12AM 61.4070 -3.2086 272° West  Level Estimated
10:13AM 61.4115 -3.4618 272° West  Level Estimated
10:14AM 61.4155 -3.7150 272° West  Level Estimated
10:15AM 61.4191 -3.9683 272° West  Level Estimated
10:16AM 61.4222 -4.2217 272° West  Level Estimated
10:17AM 61.4248 -4.4751 271° West  Level Estimated
10:18AM 61.4270 -4.7285 271° West  Level Estimated
10:19AM 61.4287 -4.9820 271° West  Level Estimated
10:20AM 61.4299 -5.2355 271° West  Level Estimated
10:21AM 61.4306 -5.4890 270° West  Level Estimated
10:22AM 61.4309 -5.7425 270° West  Level Estimated
10:23AM 61.4307 -5.9961 270° West  Level Estimated
10:24AM 61.4301 -6.2496 270° West  Level Estimated
10:25AM 61.4289 -6.5031 270° West  Level Estimated
10:26AM 61.4273 -6.7565 269° West  Level Estimated
10:27AM 61.4253 -7.0100 269° West  Level Estimated
10:28AM 61.4227 -7.2634 269° West  Level Estimated
10:29AM 61.4197 -7.5168 269° West  Level Estimated
10:30AM 61.4162 -7.7701 268° West  Level Estimated
10:31AM 61.4122 -8.0233 268° West  Level Estimated
10:32AM 61.4078 -8.2765 268° West  Level Estimated
10:33AM 61.4029 -8.5296 268° West  Level Estimated
10:34AM 61.3975 -8.7826 268° West  Level Estimated
10:35AM 61.3917 -9.0356 267° West  Level Estimated
10:36AM 61.3854 -9.2884 267° West  Level Estimated
10:37AM 61.3786 -9.5412 267° West  Level Estimated
10:38AM 61.3714 -9.7938 267° West  Level Estimated
10:39AM 61.3637 -10.0463 266° West  Level Estimated
10:40AM 61.3555 -10.2986 266° West  Level Estimated
10:41AM 61.3468 -10.5509 266° West  Level Estimated
10:42AM 61.3377 -10.8029 266° West  Level Estimated
10:43AM 61.3281 -11.0549 266° West  Level Estimated
10:44AM 61.3181 -11.3067 265° West  Level Estimated
10:45AM 61.3076 -11.5583 265° West  Level Estimated
10:46AM 61.2966 -11.8097 265° West  Level Estimated
10:47AM 61.2851 -12.0610 265° West  Level Estimated
10:48AM 61.2733 -12.3121 264° West  Level Estimated
10:49AM 61.2609 -12.5629 264° West  Level Estimated
10:50AM 61.2480 -12.8136 264° West  Level Estimated
10:51AM 61.2347 -13.0641 264° West  Level Estimated
10:52AM 61.2210 -13.3144 264° West  Level Estimated
10:53AM 61.2068 -13.5644 263° West  Level Estimated
10:54AM 61.1921 -13.8142 263° West  Level Estimated
10:55AM 61.1770 -14.0638 263° West  Level Estimated
10:56AM 61.1614 -14.3131 263° West  Level Estimated
10:57AM 61.1453 -14.5622 262° West  Level Estimated
10:58AM 61.1288 -14.8110 262° West  Level Estimated
10:59AM 61.1118 -15.0595 262° West  Level Estimated
11:00AM 61.0944 -15.3078 262° West  Level Estimated
11:01AM 61.0765 -15.5558 262° West  Level Estimated
11:02AM 61.0582 -15.8035 261° West  Level Estimated
11:03AM 61.0394 -16.0510 261° West  Level Estimated
11:04AM 61.0202 -16.2981 261° West  Level Estimated
11:05AM 61.0005 -16.5450 261° West  Level Estimated
11:06AM 60.9804 -16.7915 261° West  Level Estimated
11:07AM 60.9598 -17.0377 260° West  Level Estimated
11:08AM 60.9387 -17.2836 260° West  Level Estimated
11:09AM 60.9172 -17.5292 260° West  Level Estimated
11:10AM 60.8953 -17.7744 260° West  Level Estimated
11:11AM 60.8729 -18.0193 259° West  Level Estimated
11:12AM 60.8501 -18.2638 259° West  Level Estimated
11:13AM 60.8269 -18.5080 259° West  Level Estimated
11:14AM 60.8031 -18.7518 259° West  Level Estimated
11:15AM 60.7790 -18.9953 259° West  Level Estimated
11:16AM 60.7544 -19.2384 258° West  Level Estimated
11:17AM 60.7294 -19.4811 258° West  Level Estimated
11:18AM 60.7039 -19.7234 258° West  Level Estimated
11:19AM 60.6780 -19.9654 258° West  Level Estimated
11:20AM 60.6517 -20.2069 258° West  Level Estimated
11:21AM 60.6249 -20.4481 257° West  Level Estimated
11:22AM 60.5977 -20.6889 257° West  Level Estimated
11:23AM 60.5701 -20.9292 257° West  Level Estimated
11:24AM 60.5420 -21.1691 257° West  Level Estimated
11:25AM 60.5135 -21.4086 257° West  Level Estimated
11:26AM 60.4846 -21.6478 256° West  Level Estimated
11:27AM 60.4552 -21.8864 256° West  Level Estimated
11:28AM 60.4254 -22.1246 256° West  Level Estimated
11:29AM 60.3952 -22.3624 256° West  Level Estimated
11:30AM 60.3646 -22.5998 255° West  Level Estimated
11:31AM 60.3336 -22.8367 255° West  Level Estimated
11:32AM 60.3021 -23.0731 255° West  Level Estimated
11:33AM 60.2702 -23.3091 255° West  Level Estimated
11:34AM 60.2379 -23.5446 255° West  Level Estimated
11:35AM 60.2052 -23.7797 254° West  Level Estimated
11:36AM 60.1721 -24.0143 254° West  Level Estimated
11:37AM 60.1385 -24.2484 254° West  Level Estimated
11:38AM 60.1046 -24.4820 254° West  Level Estimated
11:39AM 60.0702 -24.7151 254° West  Level Estimated
11:40AM 60.0354 -24.9478 253° West  Level Estimated
11:41AM 60.0002 -25.1800 253° West  Level Estimated
11:42AM 59.9646 -25.4116 253° West  Level Estimated
11:43AM 59.9286 -25.6428 253° West  Level Estimated
11:44AM 59.8922 -25.8735 253° West  Level Estimated
11:45AM 59.8554 -26.1036 252° West  Level Estimated
11:46AM 59.8182 -26.3333 252° West  Level Estimated
11:47AM 59.7806 -26.5624 252° West  Level Estimated
11:48AM 59.7426 -26.7910 252° West  Level Estimated
11:49AM 59.7042 -27.0191 252° West  Level Estimated
11:50AM 59.6654 -27.2467 251° West  Level Estimated
11:51AM 59.6262 -27.4737 251° West  Level Estimated
11:52AM 59.5866 -27.7002 251° West  Level Estimated
11:53AM 59.5467 -27.9262 251° West  Level Estimated
11:54AM 59.5063 -28.1516 251° West  Level Estimated
11:55AM 59.4656 -28.3765 250° West  Level Estimated
11:56AM 59.4244 -28.6008 250° West  Level Estimated
11:57AM 59.3829 -28.8246 250° West  Level Estimated
11:58AM 59.3410 -29.0479 250° West  Level Estimated
11:59AM 59.2988 -29.2706 250° West  Level Estimated
12:00PM 59.2561 -29.4927 249° West  Level Estimated
12:01PM 59.2131 -29.7143 249° West  Level Estimated
12:02PM 59.1697 -29.9353 249° West  Level Estimated
12:03PM 59.1259 -30.1558 249° West  Level Estimated
12:04PM 59.0817 -30.3757 249° West  Level Estimated
12:05PM 59.0372 -30.5950 249° West  Level Estimated
12:06PM 58.9923 -30.8137 248° West  Level Estimated
12:07PM 58.9470 -31.0319 248° West  Level Estimated
12:08PM 58.9014 -31.2495 248° West  Level Estimated
12:09PM 58.8554 -31.4666 248° West  Level Estimated
12:10PM 58.8091 -31.6830 248° West  Level Estimated
12:11PM 58.7623 -31.8989 247° West  Level Estimated
12:12PM 58.7153 -32.1142 247° West  Level Estimated
12:13PM 58.6678 -32.3289 247° West  Level Estimated
12:14PM 58.6200 -32.5430 247° West  Level Estimated
12:15PM 58.5719 -32.7566 247° West  Level Estimated
12:16PM 58.5234 -32.9695 247° West  Level Estimated
12:17PM 58.4745 -33.1819 246° West  Level Estimated
12:18PM 58.4253 -33.3937 246° West  Level Estimated
12:19PM 58.3758 -33.6048 246° West  Level Estimated
12:20PM 58.3259 -33.8154 246° West  Level Estimated
12:21PM 58.2756 -34.0254 246° West  Level Estimated
12:22PM 58.2251 -34.2348 245° Southwest  Level Estimated
12:23PM 58.1741 -34.4436 245° Southwest  Level Estimated
12:24PM 58.1229 -34.6518 245° Southwest  Level Estimated
12:25PM 58.0713 -34.8593 245° Southwest  Level Estimated
12:26PM 58.0193 -35.0663 245° Southwest  Level Estimated
12:27PM 57.9670 -35.2727 245° Southwest  Level Estimated
12:28PM 57.9144 -35.4785 244° Southwest  Level Estimated
12:29PM 57.8615 -35.6837 244° Southwest  Level Estimated
12:30PM 57.8082 -35.8883 244° Southwest  Level Estimated
12:31PM 57.7546 -36.0922 244° Southwest  Level Estimated
12:32PM 57.7007 -36.2956 244° Southwest  Level Estimated
12:33PM 57.6465 -36.4984 244° Southwest  Level Estimated
12:34PM 57.5919 -36.7005 243° Southwest  Level Estimated
12:35PM 57.5370 -36.9021 243° Southwest  Level Estimated
12:36PM 57.4818 -37.1030 243° Southwest  Level Estimated
12:37PM 57.4262 -37.3033 243° Southwest  Level Estimated
12:38PM 57.3704 -37.5030 243° Southwest  Level Estimated
12:39PM 57.3142 -37.7021 242° Southwest  Level Estimated
12:40PM 57.2577 -37.9007 242° Southwest  Level Estimated
12:41PM 57.2009 -38.0985 242° Southwest  Level Estimated
12:42PM 57.1438 -38.2958 242° Southwest  Level Estimated
12:43PM 57.0864 -38.4925 242° Southwest  Level Estimated
12:44PM 57.0287 -38.6885 242° Southwest  Level Estimated
12:45PM 56.9707 -38.8840 241° Southwest  Level Estimated
12:46PM 56.9123 -39.0788 241° Southwest  Level Estimated
12:47PM 56.8537 -39.2731 241° Southwest  Level Estimated
12:48PM 56.7948 -39.4667 241° Southwest  Level Estimated
12:49PM 56.7356 -39.6597 241° Southwest  Level Estimated
12:50PM 56.6760 -39.8521 241° Southwest  Level Estimated
12:51PM 56.6162 -40.0439 241° Southwest  Level Estimated
12:52PM 56.5561 -40.2351 240° Southwest  Level Estimated
12:53PM 56.4957 -40.4257 240° Southwest  Level Estimated
12:54PM 56.4350 -40.6157 240° Southwest  Level Estimated
12:55PM 56.3740 -40.8050 240° Southwest  Level Estimated
12:56PM 56.3127 -40.9938 240° Southwest  Level Estimated
12:57PM 56.2512 -41.1820 240° Southwest  Level Estimated
12:58PM 56.1893 -41.3695 239° Southwest  Level Estimated
12:59PM 56.1272 -41.5564 239° Southwest  Level Estimated
01:00PM 56.0648 -41.7428 239° Southwest  Level Estimated
01:01PM 56.0021 -41.9285 239° Southwest  Level Estimated
01:02PM 55.9391 -42.1137 239° Southwest  Level Estimated
01:03PM 55.8759 -42.2982 239° Southwest  Level Estimated
01:04PM 55.8124 -42.4821 238° Southwest  Level Estimated
01:05PM 55.7486 -42.6655 238° Southwest  Level Estimated
01:06PM 55.6845 -42.8482 238° Southwest  Level Estimated
01:07PM 55.6202 -43.0303 238° Southwest  Level Estimated
01:08PM 55.5555 -43.2118 238° Southwest  Level Estimated
01:09PM 55.4907 -43.3928 238° Southwest  Level Estimated
01:10PM 55.4255 -43.5731 238° Southwest  Level Estimated
01:11PM 55.3601 -43.7528 237° Southwest  Level Estimated
01:12PM 55.2945 -43.9320 237° Southwest  Level Estimated
01:13PM 55.2285 -44.1106 237° Southwest  Level Estimated
01:14PM 55.1624 -44.2885 237° Southwest  Level Estimated
01:15PM 55.0959 -44.4659 237° Southwest  Level Estimated
01:16PM 55.0292 -44.6427 237° Southwest  Level Estimated
01:17PM 54.9622 -44.8189 237° Southwest  Level Estimated
01:18PM 54.8950 -44.9945 236° Southwest  Level Estimated
01:19PM 54.8276 -45.1695 236° Southwest  Level Estimated
01:20PM 54.7599 -45.3439 236° Southwest  Level Estimated
01:21PM 54.6919 -45.5178 236° Southwest  Level Estimated
01:22PM 54.6237 -45.6911 236° Southwest  Level Estimated
01:23PM 54.5552 -45.8638 236° Southwest  Level Estimated
01:24PM 54.4865 -46.0359 236° Southwest  Level Estimated
01:25PM 54.4176 -46.2074 235° Southwest  Level Estimated
01:26PM 54.3484 -46.3783 235° Southwest  Level Estimated
01:27PM 54.2790 -46.5487 235° Southwest  Level Estimated
01:28PM 54.2093 -46.7185 235° Southwest  Level Estimated
01:29PM 54.1394 -46.8877 235° Southwest  Level Estimated
01:30PM 54.0692 -47.0564 235° Southwest  Level Estimated
01:31PM 53.9989 -47.2245 235° Southwest  Level Estimated
01:32PM 53.9282 -47.3920 234° Southwest  Level Estimated
01:33PM 53.8574 -47.5590 234° Southwest  Level Estimated
01:34PM 53.7865 -47.7249 234° Southwest  Level Estimated
01:34PM 62.9167 -55.9333 234° Southwest 480 552 36,000  Level Gander Center
01:35PM 53.7155 -47.8902 234° Southwest  Level Estimated
01:35PM 62.8500 -56.3500 251° West 430 495 36,000  Level Gander Center
01:36PM 53.6442 -48.0549 234° Southwest  Level Estimated
01:36PM 62.7833 -56.6167 241° Southwest 500 575 36,000  Level Gander Center
01:37PM 53.5727 -48.2190 234° Southwest  Level Estimated
01:37PM 62.7333 -56.8667 247° West 480 552 36,000  Level Gander Center
01:38PM 53.5009 -48.3826 234° Southwest  Level Estimated
01:38PM 62.7000 -56.9667 234° Southwest 430 495 36,000  Level Montreal Center
01:39PM 53.4290 -48.5456 234° Southwest  Level Estimated
01:39PM 62.6500 -57.2167 247° West 470 541 36,000  Level Montreal Center
01:40PM 62.6167 -57.4333 252° West 480 552 36,000  Level Montreal Center
01:41PM 62.5333 -57.7500 240° Southwest 470 541 36,000  Level Montreal Center
01:42PM 62.4500 -57.9833 232° Southwest 480 552 36,000  Level Montreal Center
01:43PM 62.3833 -58.2000 236° Southwest 480 552 36,000  Level Montreal Center
01:44PM 62.3167 -58.4667 242° Southwest 480 552 36,000  Level Montreal Center
01:45PM 62.2500 -58.7167 240° Southwest 480 552 36,000  Level Montreal Center
01:46PM 62.1833 -58.9500 239° Southwest 480 552 36,000  Level Montreal Center
01:47PM 62.1000 -59.2167 236° Southwest 480 552 36,000  Level Montreal Center
01:48PM 62.0333 -59.4333 237° Southwest 480 552 36,000  Level Montreal Center
01:49PM 61.9500 -59.7000 236° Southwest 480 552 36,000  Level Montreal Center
01:50PM 61.8833 -59.9167 237° Southwest 480 552 36,000  Level Montreal Center
01:51PM 61.8000 -60.1667 235° Southwest 480 552 36,000  Level Montreal Center
01:52PM 61.7333 -60.3833 237° Southwest 480 552 36,000  Level Montreal Center
01:53PM 61.6500 -60.6500 237° Southwest 480 552 36,000  Level Montreal Center
01:54PM 61.5833 -60.8667 237° Southwest 480 552 36,000  Level Montreal Center
01:55PM 61.5167 -61.1000 239° Southwest 500 575 36,000  Level Montreal Center
01:56PM 61.4333 -61.3167 231° Southwest 490 564 36,000  Level Montreal Center
01:57PM 61.3500 -61.5333 231° Southwest 480 552 36,000  Level Montreal Center
01:58PM 61.2833 -61.7833 241° Southwest 470 541 36,000  Level Montreal Center
01:59PM 61.2000 -62.0333 235° Southwest 480 552 36,000  Level Montreal Center
02:00PM 61.1333 -62.2333 235° Southwest 480 552 36,000  Level Montreal Center
02:01PM 61.0667 -62.4333 235° Southwest 480 552 36,000  Level Montreal Center
02:02PM 60.9833 -62.6500 232° Southwest 480 552 36,000  Level Montreal Center
02:03PM 60.9000 -62.9333 239° Southwest 480 552 36,000  Level Montreal Center
02:04PM 60.8167 -63.1333 230° Southwest 480 552 36,000  Level Montreal Center
02:05PM 60.7333 -63.3833 236° Southwest 490 564 36,000  Level Montreal Center
02:06PM 60.6667 -63.5833 236° Southwest 490 564 36,000  Level Montreal Center
02:07PM 60.5667 -63.8167 229° Southwest 480 552 36,000  Level Montreal Center
02:08PM 60.5000 -64.0500 240° Southwest 480 552 36,000  Level Montreal Center
02:09PM 60.4167 -64.2500 230° Southwest 480 552 36,000  Level Montreal Center
02:10PM 60.3333 -64.4500 230° Southwest 480 552 36,000  Level Montreal Center
02:11PM 60.2500 -64.6833 234° Southwest 490 564 36,000  Level Montreal Center
02:12PM 60.1667 -64.9167 234° Southwest 490 564 36,000  Level Montreal Center
02:13PM 60.0833 -65.1167 230° Southwest 490 564 36,000  Level Montreal Center
02:14PM 59.9833 -65.2833 220° Southwest 480 552 36,000  Level Montreal Center
02:15PM 59.9000 -65.4500 225° Southwest 480 552 36,000  Level Montreal Center
02:16PM 59.7833 -65.6500 221° Southwest 480 552 36,000  Level Montreal Center
02:17PM 59.6833 -65.8167 220° Southwest 480 552 36,000  Level Montreal Center
02:18PM 59.5833 -66.0167 225° Southwest 480 552 36,000  Level Montreal Center
02:19PM 59.5000 -66.1833 225° Southwest 480 552 36,000  Level Montreal Center
02:20PM 59.3833 -66.4167 226° Southwest 480 552 36,000  Level Gander Center
02:21PM 59.2667 -66.6000 219° Southwest 480 552 36,000  Level Gander Center
02:22PM 59.1833 -66.7500 223° Southwest 480 552 36,000  Level Gander Center
02:23PM 59.0667 -66.9167 216° Southwest 480 552 36,000  Level Gander Center
02:24PM 58.9667 -67.0667 218° Southwest 480 552 36,000  Level Gander Center
02:25PM 58.8667 -67.2500 224° Southwest 480 552 36,000  Level Gander Center
02:26PM 58.7667 -67.4167 221° Southwest 480 552 36,000  Level Gander Center
02:27PM 58.6500 -67.5667 214° Southwest 480 552 36,000  Level Gander Center
02:28PM 58.5667 -67.7333 226° Southwest 480 552 36,000  Level Gander Center
02:29PM 58.4500 -67.9167 219° Southwest 480 552 36,000  Level Gander Center
02:30PM 58.3500 -68.0500 215° Southwest 480 552 36,000  Level Gander Center
02:31PM 58.2500 -68.2333 224° Southwest 480 552 36,000  Level Gander Center
02:32PM 58.1500 -68.3667 215° Southwest 480 552 36,000  Level Gander Center
02:33PM 58.0333 -68.5333 217° Southwest 460 529 36,000  Level Gander Center
02:34PM 57.9500 -68.6667 220° Southwest 480 552 36,000  Level Gander Center
02:35PM 57.8333 -68.8167 214° Southwest 480 552 36,000  Level Gander Center
02:36PM 57.6833 -69.0333 218° Southwest 470 541 36,000  Level Gander Center
02:37PM 57.5667 -69.1667 212° Southwest 480 552 36,000  Level Gander Center
02:38PM 57.4500 -69.3167 215° Southwest 480 552 36,000  Level Gander Center
02:39PM 57.3500 -69.4500 216° Southwest 480 552 36,000  Level Gander Center
02:40PM 57.2333 -69.6167 218° Southwest 480 552 36,000  Level Gander Center
02:41PM 57.1333 -69.7500 216° Southwest 480 552 36,000  Level Gander Center
02:42PM 57.0167 -69.8833 212° Southwest 480 552 36,000  Level Gander Center
02:43PM 56.9000 -70.0333 215° Southwest 480 552 36,000  Level Gander Center
02:44PM 56.8167 -70.1667 221° Southwest 470 541 36,000  Level Gander Center
02:45PM 56.7000 -70.3000 212° Southwest 470 541 36,000  Level Gander Center
02:46PM 56.6000 -70.4167 213° Southwest 470 541 36,000  Level Gander Center
02:47PM 56.4833 -70.5833 218° Southwest 470 541 36,000  Level Gander Center
02:48PM 56.3667 -70.7000 209° Southwest 470 541 36,000  Level Gander Center
02:49PM 56.2667 -70.8333 217° Southwest 470 541 36,000  Level Gander Center
02:50PM 56.1667 -70.9667 217° Southwest 470 541 36,000  Level Gander Center
02:51PM 56.0500 -71.0833 209° Southwest 470 541 36,000  Level Gander Center
02:52PM 55.9333 -71.2333 216° Southwest 470 541 36,000  Level Gander Center
02:53PM 55.8333 -71.3500 213° Southwest 470 541 36,000  Level Gander Center
02:54PM 55.7167 -71.4833 213° Southwest 470 541 36,000  Level Gander Center
02:55PM 55.6167 -71.6333 220° Southwest 480 552 36,000  Level Gander Center
02:56PM 55.5000 -71.7500 210° Southwest 470 541 36,000  Level Gander Center
02:57PM 55.3833 -71.8667 210° Southwest 470 541 36,000  Level Gander Center
02:58PM 55.3000 -71.9833 219° Southwest 470 541 36,000  Level Gander Center
02:59PM 55.1833 -72.1333 216° Southwest 470 541 36,000  Level Gander Center
03:00PM 55.1000 -72.1667 193° South 460 529 36,000  Level Montreal Center
03:01PM 54.9833 -72.3000 213° Southwest 470 541 36,000  Level Montreal Center
03:02PM 54.8667 -72.4167 210° Southwest 460 529 36,000  Level Montreal Center
03:03PM 54.7667 -72.5500 218° Southwest 460 529 36,000  Level Montreal Center
03:04PM 54.6667 -72.6667 214° Southwest 460 529 36,000  Level Montreal Center
03:05PM 54.5500 -72.8000 214° Southwest 460 529 36,000  Level Montreal Center
03:06PM 54.4333 -72.9167 210° Southwest 460 529 36,000  Level Montreal Center
03:07PM 54.3333 -73.0500 218° Southwest 460 529 36,000  Level Montreal Center
03:08PM 54.2167 -73.1333 203° Southwest 460 529 36,000  Level Montreal Center
03:09PM 54.1167 -73.2667 218° Southwest 450 518 36,000  Level Montreal Center
03:10PM 54.0000 -73.3833 210° Southwest 450 518 36,000  Level Montreal Center
03:11PM 53.9000 -73.5000 215° Southwest 450 518 36,000  Level Montreal Center
03:12PM 53.7833 -73.6000 207° Southwest 450 518 36,000  Level Montreal Center
03:13PM 53.6833 -73.7167 215° Southwest 450 518 36,000  Level Montreal Center
03:14PM 53.5667 -73.8167 207° Southwest 450 518 36,000  Level Montreal Center
03:15PM 53.4500 -73.9000 203° Southwest 450 518 36,000  Level Montreal Center
03:16PM 53.3333 -73.9833 203° Southwest 450 518 36,000  Level Montreal Center
03:17PM 53.2167 -74.1000 211° Southwest 450 518 36,000  Level Montreal Center
03:18PM 53.1000 -74.2000 207° Southwest 450 518 36,000  Level Montreal Center
03:19PM 53.0000 -74.2833 207° Southwest 450 518 36,000  Level Montreal Center
03:20PM 52.8833 -74.3667 203° Southwest 450 518 36,000  Level Montreal Center
03:21PM 52.7667 -74.4667 207° Southwest 450 518 36,000  Level Montreal Center
03:22PM 52.6667 -74.5833 215° Southwest 450 518 36,000  Level Montreal Center
03:23PM 52.5667 -74.6667 207° Southwest 460 529 36,000  Level Montreal Center
03:24PM 52.4167 -74.7500 199° South 450 518 36,000  Level Montreal Center
03:25PM 52.3167 -74.8333 207° Southwest 440 506 36,000  Level Montreal Center
03:26PM 52.2167 -74.9167 207° Southwest 440 506 36,000  Level Montreal Center
03:27PM 52.0833 -75.0000 201° Southwest 440 506 36,000  Level Montreal Center
03:28PM 51.9667 -75.1167 212° Southwest 460 529 36,000  Level Montreal Center
03:29PM 51.8667 -75.2000 207° Southwest 450 518 36,000  Level Montreal Center
03:30PM 51.7500 -75.2833 204° Southwest 440 506 36,000  Level Montreal Center
03:31PM 51.6333 -75.3667 204° Southwest 440 506 36,000  Level Montreal Center
03:32PM 51.5333 -75.4500 207° Southwest 440 506 36,000  Level Montreal Center
03:33PM 51.4167 -75.5333 204° Southwest 440 506 36,000  Level Montreal Center
03:34PM 51.3167 -75.6167 208° Southwest 440 506 36,000  Level Montreal Center
03:35PM 51.2000 -75.7000 204° Southwest 440 506 36,000  Level Montreal Center
03:36PM 51.0833 -75.7833 204° Southwest 440 506 36,000  Level Montreal Center
03:37PM 50.9667 -75.8833 208° Southwest 440 506 36,000  Level Montreal Center
03:38PM 50.8667 -75.9667 208° Southwest 440 506 36,000  Level Montreal Center
03:39PM 50.7500 -76.0500 204° Southwest 440 506 36,000  Level Montreal Center
03:40PM 50.6333 -76.1167 200° South 440 506 36,000  Level Montreal Center
03:41PM 50.5333 -76.2000 208° Southwest 440 506 36,000  Level Montreal Center
03:42PM 50.4167 -76.2833 204° Southwest 450 518 36,000  Level Montreal Center
03:43PM 50.3000 -76.3667 205° Southwest 440 506 36,000  Level Montreal Center
03:44PM 50.2000 -76.4333 203° Southwest 440 506 36,000  Level Montreal Center
03:45PM 50.0667 -76.5167 202° Southwest 440 506 36,000  Level Montreal Center
03:46PM 49.9500 -76.6000 205° Southwest 440 506 36,000  Level Montreal Center
03:47PM 49.8500 -76.6667 203° Southwest 440 506 36,000  Level Montreal Center
03:48PM 49.7333 -76.7667 209° Southwest 430 495 36,000  Level Montreal Center
03:49PM 49.6333 -76.8500 208° Southwest 440 506 36,000  Level Montreal Center
03:50PM 49.5167 -76.9167 200° South 420 483 36,000  Level Montreal Center
03:51PM 49.4000 -77.0000 205° Southwest 450 518 36,000  Level Montreal Center
03:52PM 49.3000 -77.0667 204° Southwest 440 506 36,000  Level Montreal Center
03:53PM 49.1833 -77.1500 205° Southwest 430 495 36,000  Level Montreal Center
03:54PM 49.0833 -77.2167 204° Southwest 440 506 36,000  Level Montreal Center
03:55PM 48.9667 -77.3000 205° Southwest 430 495 36,000  Level Montreal Center
03:56PM 48.8500 -77.3667 201° Southwest 430 495 36,000  Level Montreal Center
03:57PM 48.7333 -77.4500 205° Southwest 430 495 36,000  Level Montreal Center
03:58PM 48.6333 -77.5167 204° Southwest 430 495 36,000  Level Montreal Center
03:59PM 48.5167 -77.5833 201° Southwest 430 495 36,000  Level Montreal Center
04:00PM 48.4167 -77.6667 209° Southwest 430 495 36,000  Level Montreal Center
04:01PM 48.3000 -77.7333 201° Southwest 430 495 36,000  Level Montreal Center
04:02PM 48.1833 -77.8000 201° Southwest 440 506 36,000  Level Montreal Center
04:03PM 48.0667 -77.8833 206° Southwest 440 506 36,000  Level Montreal Center
04:04PM 47.9500 -77.9500 201° Southwest 440 506 36,000  Level Montreal Center
04:05PM 47.8333 -78.0167 201° Southwest 440 506 36,000  Level Montreal Center
04:06PM 47.7333 -78.0833 204° Southwest 440 506 36,000  Level Montreal Center
04:07PM 47.6167 -78.1333 196° South 440 506 36,000  Level Montreal Center
04:08PM 47.5000 -78.2000 201° Southwest 440 506 36,000  Level Montreal Center
04:09PM 47.4000 -78.2667 204° Southwest 430 495 36,000  Level Montreal Center
04:10PM 47.2833 -78.3500 206° Southwest 430 495 36,000  Level Montreal Center
04:11PM 47.1667 -78.4167 201° Southwest 430 495 36,000  Level Montreal Center
04:17PM 46.5313 -78.7577 201° Southwest 435 501 36,000  Level FlightAware ADS-B (CYYZ)
04:18PM 46.4704 -78.7913 201° Southwest 435 501 36,000  Level FlightAware ADS-B (CYYZ)
04:18PM 46.4137 -78.8224 201° Southwest 436 502 36,000  Level FlightAware ADS-B (CYYZ)
04:19PM 46.3574 -78.8533 201° Southwest 437 503 36,000  Level FlightAware ADS-B (CYYZ)
04:19PM 46.3050 -78.8820 201° Southwest 437 503 36,000  Level FlightAware ADS-B (CYYZ)
04:20PM 46.2449 -78.9149 201° Southwest 437 503 36,000  Level FlightAware ADS-B (CYYZ)
04:20PM 46.1928 -78.9433 201° Southwest 436 502 36,000  Level FlightAware ADS-B (CYYZ)
04:21PM 46.1335 -78.9756 201° Southwest 435 501 36,000  Level FlightAware ADS-B (CYYZ)
04:21PM 46.0739 -79.0078 201° Southwest 437 503 36,000  Level FlightAware ADS-B (CYYZ)
04:22PM 46.0173 -79.0383 201° Southwest 439 505 36,000  Level FlightAware ADS-B (CYYZ)
04:22PM 45.9639 -79.0671 201° Southwest 441 507 36,000  Level FlightAware ADS-B (CYYZ)
04:23PM 45.9030 -79.1000 201° Southwest 442 509 36,000  Level FlightAware ADS-B (CYYZ)
04:23PM 45.8452 -79.1310 201° Southwest 441 507 36,000  Level FlightAware ADS-B (CYYZ)
04:24PM 45.7881 -79.1616 201° Southwest 442 509 36,000  Level FlightAware ADS-B (CYYZ)
04:24PM 45.7315 -79.1919 201° Southwest 441 507 36,000  Level FlightAware ADS-B (CYYZ)
04:25PM 45.6797 -79.2196 201° Southwest 441 507 36,000  Level FlightAware ADS-B (CYYZ)
04:25PM 45.6165 -79.2532 201° Southwest 442 509 36,000  Level FlightAware ADS-B (CYYZ)
04:26PM 45.5584 -79.2840 201° Southwest 443 510 36,000  Level FlightAware ADS-B (CYYZ)
04:26PM 45.5036 -79.3132 201° Southwest 443 510 36,000  Level FlightAware ADS-B (CYYZ)
04:27PM 45.4445 -79.3445 201° Southwest 444 511 36,000  Level FlightAware ADS-B (CYYZ)
04:27PM 45.3898 -79.3733 201° Southwest 444 511 36,000  Level FlightAware ADS-B (CYYZ)
04:28PM 45.3274 -79.4062 201° Southwest 444 511 36,000  Level FlightAware ADS-B (CYYZ)
04:28PM 45.2706 -79.4361 201° Southwest 444 511 36,000  Level FlightAware ADS-B (CYYZ)
04:29PM 45.2171 -79.4642 201° Southwest 444 511 36,000  Level FlightAware ADS-B (CYYZ)
04:29PM 45.1541 -79.4973 201° Southwest 445 512 36,000  Level FlightAware ADS-B (CYYZ)
04:30PM 45.0980 -79.5265 201° Southwest 446 513 36,000  Level FlightAware ADS-B (CYYZ)
04:30PM 45.0424 -79.5555 201° Southwest 445 512 36,000  Level FlightAware ADS-B (CYYZ)
04:31PM 44.9797 -79.5881 201° Southwest 446 513 36,000  Level FlightAware ADS-B (CYYZ)
04:31PM 44.9256 -79.6161 201° Southwest 447 514 36,000  Level FlightAware ADS-B (CYYZ)
04:32PM 44.8643 -79.6480 201° Southwest 448 516 36,000  Level FlightAware ADS-B (CYYZ)
04:32PM 44.8054 -79.6785 201° Southwest 449 517 36,000  Level FlightAware ADS-B (CYYZ)
04:32PM 44.7634 -79.7001 200° South 450 518 36,000  Level FlightAware ADS-B (CYKZ)
04:33PM 44.7526 -79.7057 201° Southwest 448 516 36,000  Level FlightAware ADS-B (CYYZ)
04:33PM 44.6899 -79.7379 201° Southwest 448 516 36,000  Level FlightAware ADS-B (CYYZ)
04:33PM 44.6862 -79.7399 200° South 448 516 36,000  Level FlightAware ADS-B (CYKZ)
04:34PM 44.6307 -79.7683 201° Southwest 446 513 36,000  Level FlightAware ADS-B (CYYZ)
04:34PM 44.6241 -79.7719 201° Southwest 446 513 36,000  Level FlightAware ADS-B (CYKZ)
04:34PM 44.5774 -79.8006 207° Southwest 444 511 36,000  Level FlightAware ADS-B (CYYZ)
04:34PM 44.5475 -79.8231 210° Southwest 442 509 36,000  Level FlightAware ADS-B (CYKZ)
04:35PM 44.5038 -79.8619 214° Southwest 441 507 36,000  Level FlightAware ADS-B (CYYZ)
04:35PM 44.4940 -79.8709 213° Southwest 441 507 36,000  Level FlightAware ADS-B (CYKZ)
04:35PM 44.4528 -79.9092 214° Southwest 440 506 36,000  Level FlightAware ADS-B (CYYZ)
04:36PM 44.4241 -79.9355 213° Southwest 441 507 36,000  Level FlightAware ADS-B (CYKZ)
04:36PM 44.4019 -79.9557 213° Southwest 441 507 36,000  Level FlightAware ADS-B (CYYZ)
04:36PM 44.3638 -79.9900 213° Southwest 443 510 36,000  Level FlightAware ADS-B (CYKZ)
04:36PM 44.3502 -80.0022 213° Southwest 442 509 36,000  Level FlightAware ADS-B (CYYZ)
04:37PM 44.2991 -80.0480 213° Southwest 444 511 36,000  Level FlightAware ADS-B (CYYZ)
04:37PM 44.2470 -80.0946 213° Southwest 445 512 36,000  Level FlightAware ADS-B (CYYZ)
04:38PM 44.1947 -80.1412 213° Southwest 447 514 36,000  Level FlightAware ADS-B (CYYZ)
04:38PM 44.1443 -80.1861 213° Southwest 447 514 36,000  Level FlightAware ADS-B (CYYZ)
04:39PM 44.0908 -80.2337 213° Southwest 446 513 36,000  Level FlightAware ADS-B (CYYZ)
04:39PM 44.0789 -80.2443 213° Southwest 447 514 36,000  Level FlightAware ADS-B (CYKZ)
04:39PM 44.0386 -80.2802 213° Southwest 446 513 36,000  Level FlightAware ADS-B (CYYZ)
04:40PM 44.0000 -80.2833 211° Southwest 450 518 36,000  Level Toronto Center
04:40PM 44.0000 -80.3142 213° Southwest 446 513 36,000  Level FlightAware ADS-B
04:40PM 43.9892 -80.3238 213° Southwest 446 513 36,000  Level FlightAware ADS-B (CYYZ)
04:40PM 43.9335 -80.3730 213° Southwest 448 516 36,000  Level FlightAware ADS-B (CYYZ)
04:40PM 43.9194 -80.3855 213° Southwest 448 516 36,000  Level FlightAware ADS-B (CYKZ)
04:41PM 43.8816 -80.4187 213° Southwest 448 516 36,000  Level FlightAware ADS-B (CYYZ)
04:41PM 43.8585 -80.4391 213° Southwest 448 516 36,000  Level FlightAware ADS-B (CYKZ)
04:41PM 43.8287 -80.4652 213° Southwest 448 516 36,000  Level FlightAware ADS-B (CYYZ)
04:42PM 43.7846 -80.5039 212° Southwest 448 516 36,000  Level FlightAware ADS-B (CYKZ)
04:42PM 43.7768 -80.5107 213° Southwest 447 514 36,000  Level FlightAware ADS-B (CYYZ)
04:44PM 43.6116 -80.6506 212° Southwest  Level FlightAware Approximate
04:45PM 43.5180 -80.7295 211° Southwest  Level FlightAware Approximate
04:45PM 43.4333 -80.8097 212° Southwest 447 514 36,000  Level FlightAware ADS-B (CYKF)
04:45PM 43.4121 -80.8280 213° Southwest 447 514 36,000  Level FlightAware ADS-B (CYYZ)
04:46PM 43.3759 -80.8592 212° Southwest 448 516 36,000  Level FlightAware ADS-B
04:46PM 43.3609 -80.8721 213° Southwest 448 516 36,000  Level FlightAware ADS-B (CYYZ)
04:46PM 43.3031 -80.9138 205° Southwest 454 522 36,000  Level FlightAware ADS-B
04:47PM 43.2660 -80.9382 206° Southwest 452 520 36,000  Level FlightAware ADS-B (CYYZ)
04:47PM 43.2200 -80.9690 206° Southwest 452 520 36,000  Level FlightAware ADS-B (CYKZ)
04:47PM 43.2104 -80.9754 206° Southwest 451 519 36,000  Level FlightAware ADS-B (CYYZ)
04:48PM 43.1535 -81.0133 206° Southwest 452 520 36,000  Level FlightAware ADS-B (CYYZ)
04:48PM 43.1431 -81.0201 206° Southwest 452 520 36,000  Level FlightAware ADS-B (CYKZ)
04:48PM 43.0974 -81.0503 206° Southwest 452 520 36,000  Level FlightAware ADS-B (CYYZ)
04:48PM 43.0854 -81.0582 206° Southwest 452 520 36,000  Level FlightAware ADS-B (CYKZ)
04:49PM 43.0411 -81.0873 206° Southwest 452 520 36,000  Level FlightAware ADS-B (CYYZ)
04:49PM 43.0178 -81.1027 206° Southwest 453 521 36,000  Level FlightAware ADS-B (CYKZ)
04:49PM 42.9832 -81.1254 206° Southwest 452 520 36,000  Level FlightAware ADS-B (CYYZ)
04:49PM 42.9558 -81.1433 206° Southwest 454 522 36,000  Level FlightAware ADS-B (CYKZ)
04:50PM 42.9276 -81.1618 206° Southwest 453 521 36,000  Level FlightAware ADS-B (CYYZ)
04:50PM 42.8783 -81.1941 206° Southwest 454 522 36,000  Level FlightAware ADS-B (CYKZ)
04:50PM 42.8707 -81.1991 206° Southwest 453 521 36,000  Level FlightAware ADS-B (CYYZ)
04:51PM 42.8138 -81.2362 206° Southwest 453 521 36,000  Level FlightAware ADS-B (CYYZ)
04:51PM 42.8159 -81.2349 206° Southwest 454 522 36,000  Level FlightAware ADS-B (CYKZ)
04:51PM 42.7574 -81.2730 206° Southwest 453 521 36,000  Level FlightAware ADS-B (CYYZ)
04:51PM 42.7384 -81.2854 206° Southwest 454 522 36,000  Level FlightAware ADS-B (CYKZ)
04:52PM 42.7008 -81.3099 206° Southwest 453 521 36,000  Level FlightAware ADS-B (CYYZ)
04:52PM 42.6742 -81.3273 206° Southwest 454 522 36,000  Level FlightAware ADS-B (CYKZ)
04:52PM 42.6451 -81.3462 206° Southwest 453 521 36,000  Level FlightAware ADS-B (CYYZ)
04:52PM 42.6105 -81.3686 206° Southwest 453 521 36,000  Level FlightAware ADS-B (CYKZ)
04:53PM 42.5875 -81.3834 206° Southwest 453 521 36,000  Level FlightAware ADS-B (CYYZ)
04:53PM 42.5327 -81.4188 205° Southwest 453 521 36,000  Level FlightAware ADS-B (CYKZ)
04:54PM 42.4735 -81.4569 206° Southwest 452 520 36,000  Level FlightAware ADS-B (CYYZ)
04:54PM 42.4690 -81.4598 205° Southwest 452 520 36,000  Level FlightAware ADS-B (CYKZ)
04:54PM 42.4212 -81.4906 206° Southwest 451 519 36,000  Level FlightAware ADS-B (CYYZ)
04:55PM 42.3735 -81.5213 206° Southwest 453 521 36,000  Level FlightAware ADS-B (CYYZ)
04:55PM 42.3040 -81.5659 206° Southwest 453 521 36,000  Level FlightAware ADS-B (CYYZ)
04:56PM 42.2575 -81.5957 206° Southwest 454 522 36,000  Level FlightAware ADS-B (CYYZ)
04:56PM 42.1948 -81.6358 206° Southwest 454 522 36,000  Level FlightAware ADS-B (CYYZ)
04:57PM 42.1384 -81.6717 206° Southwest 454 522 36,000  Level FlightAware ADS-B (CYYZ)
04:57PM 42.0910 -81.7019 206° Southwest 454 522 36,000  Level FlightAware ADS-B (CYYZ)
04:58PM 41.9709 -81.7779 206° Southwest 453 521 36,000  Level FlightAware ADS-B (CYYZ)
04:58PM 41.9131 -81.8146 206° Southwest 454 522 36,000  Level FlightAware ADS-B (CYYZ)
04:59PM 41.8509 -81.8538 206° Southwest 455 524 36,000  Level FlightAware ADS-B (CYYZ)
04:59PM 41.8107 -81.8793 206° Southwest 454 522 36,000  Level FlightAware ADS-B (CYYZ)
05:00PM 41.7443 -81.9211 206° Southwest 454 522 36,000  Level FlightAware ADS-B (CYYZ)
05:01PM 41.6264 -81.9949 206° Southwest 456 525 36,000  Level FlightAware ADS-B (CYYZ)
05:01PM 41.6152 -82.0020 206° Southwest 455 524 36,000  Level FlightAware ADS-B (CYYZ)
05:02PM 41.5217 -82.0608 206° Southwest 455 524 36,000  Level Cleveland Center
05:03PM 41.4078 -82.1308 205° Southwest 455 524 36,000  Level Cleveland Center
05:04PM 41.2869 -82.1864 199° South 457 526 36,000  Level Cleveland Center
05:05PM 41.1414 -82.2392 195° South 462 532 36,000  Level Cleveland Center
05:06PM 41.0167 -82.2847 195° South 462 532 36,000  Level Cleveland Center
05:07PM 40.8919 -82.3283 195° South 463 533 36,000  Level Cleveland Center
05:08PM 40.7658 -82.3736 195° South 463 533 36,000  Level Cleveland Center
05:10PM 40.5350 -82.4542 195° South 463 533 36,000  Level Indianapolis Center
05:16PM 39.8155 -82.6112 183° South 482 555 36,000  Level FlightAware ADS-B (KPMH)
05:16PM 39.6946 -82.6194 183° South 482 555 36,000  Level FlightAware ADS-B (KPMH)
05:17PM 39.6271 -82.6240 183° South 484 557 36,000  Level FlightAware ADS-B (KPMH)
05:18PM 39.5384 -82.6300 183° South 484 557 36,000  Level FlightAware ADS-B (KPMH)
05:18PM 39.4770 -82.6341 183° South 484 557 36,000  Level FlightAware ADS-B (KPMH)
05:19PM 39.3743 -82.6409 183° South 482 555 36,000  Level FlightAware ADS-B (KPMH)
05:20PM 39.2796 -82.6472 183° South 481 554 36,000  Level FlightAware ADS-B (KPMH)
05:20PM 39.2071 -82.6520 183° South 480 552 36,000  Level FlightAware ADS-B (KPMH)
05:21PM 39.1396 -82.6564 183° South 480 552 36,000  Level FlightAware ADS-B (KPMH)
05:21PM 39.0463 -82.6626 183° South 481 554 36,000  Level FlightAware ADS-B (KPMH)
05:22PM 38.9582 -82.6684 183° South 482 555 36,000  Level FlightAware ADS-B (KPMH)
05:23PM 38.8790 -82.6736 183° South 481 554 36,000  Level FlightAware ADS-B (KPMH)
05:23PM 38.8165 -82.6777 183° South 480 552 36,000  Level FlightAware ADS-B (KPMH)
05:24PM 38.7172 -82.6843 183° South 481 554 36,000  Level FlightAware ADS-B (KPMH)
05:24PM 38.6537 -82.6884 183° South 483 556 36,000  Level FlightAware ADS-B (KPMH)
05:25PM 38.5106 -82.6969 183° South 481 554 36,000  Level Indianapolis Center
05:26PM 38.3772 -82.7067 183° South 481 554 36,000  Level Indianapolis Center
05:27PM 38.2447 -82.7156 183° South 481 554 36,000  Level Indianapolis Center
05:28PM 38.1117 -82.7222 182° South 480 552 36,000 240 Level Indianapolis Center
05:30PM 37.9783 -82.7331 184° South 480 552 36,600 960 Climbing Indianapolis Center
05:31PM 37.8250 -82.7414 182° South 475 547 38,000 660 Climbing Indianapolis Center
05:32PM 37.7031 -82.7558 185° South 450 518 38,000  Level Indianapolis Center
05:33PM 37.5872 -82.8081 200° South 443 510 38,000  Level Indianapolis Center
05:34PM 37.4814 -82.8817 209° Southwest 439 505 38,000  Level Indianapolis Center
05:35PM 37.3747 -82.9519 208° Southwest 436 502 38,000  Level Indianapolis Center
05:36PM 37.2661 -83.0217 207° Southwest 436 502 38,000  Level Indianapolis Center
05:37PM 37.1606 -83.0919 208° Southwest 436 502 38,000  Level Indianapolis Center
05:38PM 37.0397 -83.1711 208° Southwest 428 493 38,000  Level Indianapolis Center
05:39PM 36.9331 -83.2397 207° Southwest 429 494 38,000  Level Indianapolis Center
05:40PM 36.8272 -83.3067 207° Southwest 429 494 38,000  Level Indianapolis Center
05:41PM 36.7208 -83.3753 207° Southwest 429 494 38,000  Level Indianapolis Center
05:42PM 36.6142 -83.4442 207° Southwest 429 494 38,000  Level Indianapolis Center
05:43PM 36.4853 -83.5258 207° Southwest 435 501 38,000  Level Indianapolis Center
05:44PM 36.3764 -83.5958 207° Southwest 438 504 38,000  Level Indianapolis Center
05:45PM 36.2672 -83.6639 207° Southwest 438 504 38,000  Level Indianapolis Center
05:46PM 36.1594 -83.7342 208° Southwest 438 504 38,000  Level Indianapolis Center
05:47PM 36.0975 -83.7767 209° Southwest 431 496 38,000  Level Atlanta Center
05:51PM 35.3493 -84.0295 191° South 443 510 38,000  Level FlightAware ADS-B (KDZJ)
05:52PM 35.2129 -84.0622 191° South 440 506 38,000  Level FlightAware ADS-B (KDZJ)
05:53PM 35.1358 -84.0808 191° South 445 512 38,000  Level FlightAware ADS-B (KDZJ)
05:54PM 35.0603 -84.0989 191° South 445 512 38,000  Level FlightAware ADS-B (KDZJ)
05:54PM 34.9757 -84.1190 191° South 446 513 38,000  Level FlightAware ADS-B (KDZJ)
05:55PM 34.8856 -84.1404 191° South 446 513 38,000  Level FlightAware ADS-B (KDZJ)
05:56PM 34.8086 -84.1588 191° South 443 510 38,000  Level FlightAware ADS-B (KDZJ)
05:56PM 34.7335 -84.1766 191° South 440 506 38,000  Level FlightAware ADS-B (KDZJ)
05:57PM 34.6493 -84.1966 191° South 430 495 38,000  Level FlightAware ADS-B (KDZJ)
05:58PM 34.5738 -84.2144 191° South 429 494 38,000  Level FlightAware ADS-B (KDZJ)
05:58PM 34.4972 -84.2325 191° South 429 494 38,000  Level FlightAware ADS-B (KDZJ)
05:59PM 34.4068 -84.2538 191° South 430 495 38,000  Level FlightAware ADS-B (KDZJ)
06:00PM 34.3260 -84.2728 191° South 430 495 38,000  Level FlightAware ADS-B (KDZJ)
06:00PM 34.2472 -84.2912 191° South 429 494 38,000  Level FlightAware ADS-B (KDZJ)
06:01PM 34.1674 -84.3099 191° South 429 494 38,000  Level FlightAware ADS-B (KDZJ)
06:02PM 34.0882 -84.3284 191° South 429 494 38,000  Level FlightAware ADS-B (KDZJ)
06:02PM 34.0082 -84.3471 191° South 428 493 38,000  Level FlightAware ADS-B (KDZJ)
06:03PM 33.9505 -84.3606 191° South 427 491 38,000  Level FlightAware ADS-B (KDZJ)
06:04PM 34.0486 -84.3397 191° South 443 510 38,000  Level Atlanta Center
06:05PM 33.9211 -84.3692 191° South 443 510 38,000  Level Atlanta Center
06:06PM 33.8022 -84.3964 191° South 443 510 38,000  Level Atlanta Center
06:07PM 33.6808 -84.4258 191° South 443 510 38,000 -240 Level Atlanta Center
06:08PM 33.5597 -84.4378 185° South 443 510 37,600 -540 Descending Atlanta Center
06:09PM 33.4408 -84.4322 178° South 443 510 37,000 -300 Descending Atlanta Center
06:10PM 33.3219 -84.4317 180° South 436 502 37,000  Level Atlanta Center
06:11PM 33.2031 -84.4286 179° South 436 502 37,000  Level Atlanta Center
06:12PM 33.0861 -84.4281 180° South 436 502 37,000  Level Atlanta Center
06:13PM 32.9628 -84.4225 178° South 436 502 37,000  Level Atlanta Center
06:14PM 32.8439 -84.4219 180° South 436 502 37,000  Level Atlanta Center
06:15PM 32.7394 -84.4192 179° South 436 502 37,000  Level Atlanta Center
06:16PM 32.6186 -84.4186 180° South 431 496 37,000  Level Atlanta Center
06:17PM 32.4994 -84.4131 178° South 431 496 37,000  Level Atlanta Center
06:18PM 32.3806 -84.4103 179° South 431 496 37,000  Level Atlanta Center
06:19PM 32.2617 -84.4097 180° South 431 496 37,000  Level Atlanta Center
06:20PM 32.1425 -84.4067 179° South 431 496 37,000  Level Atlanta Center
06:20PM 32.0342 -84.4072 180° South 433 498 37,000  Level Jacksonville Center
06:21PM 31.9278 -84.4028 178° South 415 478 37,000  Level Jacksonville Center
06:22PM 31.8111 -84.3986 178° South 415 478 37,000  Level Jacksonville Center
06:23PM 31.6817 -84.3964 179° South 420 483 37,000  Level Jacksonville Center
06:24PM 31.5667 -84.3947 179° South 420 483 37,000  Level Jacksonville Center
06:30PM 30.9131 -84.3809 179° South 420 483 37,000  Level FlightAware ADS-B (KTLH)
06:31PM 30.8522 -84.3797 179° South 420 483 37,000  Level FlightAware ADS-B (KTLH)
06:31PM 30.7737 -84.3782 179° South 419 482 37,000  Level FlightAware ADS-B (KTLH)
06:32PM 30.7064 -84.3769 179° South 418 481 37,000  Level FlightAware ADS-B (KTLH)
06:33PM 30.6575 -84.3734 173° South 427 491 37,000  Level FlightAware ADS-B (KTLH)
06:33PM 30.5599 -84.3520 165° South 440 506 37,000  Level FlightAware ADS-B (KTLH)
06:34PM 30.5032 -84.3304 159° South 449 517 37,000  Level FlightAware ADS-B (KTLH)
06:34PM 30.4407 -84.2977 153° Southeast 460 529 37,000  Level FlightAware ADS-B (KTLH)
06:35PM 30.3810 -84.2587 150° Southeast 463 533 37,000  Level FlightAware ADS-B (KTLH)
06:35PM 30.3152 -84.2158 151° Southeast 461 531 37,000  Level FlightAware ADS-B (KTLH)
06:36PM 30.2553 -84.1767 151° Southeast 457 526 37,000  Level FlightAware ADS-B (KTLH)
06:37PM 30.1299 -84.0950 150° Southeast 454 522 37,000  Level FlightAware ADS-B (KTLH)
06:39PM 29.8594 -83.9225 151° Southeast 453 521 37,000  Level Jacksonville Center
06:40PM 29.7514 -83.8494 150° Southeast 453 521 37,000  Level Jacksonville Center
06:41PM 29.6392 -83.7814 152° Southeast 453 521 37,000  Level Jacksonville Center
06:42PM 29.5269 -83.7089 151° Southeast 453 521 37,000  Level Jacksonville Center
06:51PM 28.5533 -83.0897 150° Southeast 458 527 37,000  Level Miami Center
06:52PM 28.6631 -83.1585 150° Southeast  Level FlightAware Approximate
06:52PM 28.4394 -83.0197 152° Southeast 458 527 37,000  Level Miami Center
06:53PM 28.5677 -83.0970 150° Southeast  Level FlightAware Approximate
06:54PM 28.4722 -83.0356 151° Southeast  Level FlightAware Approximate
06:55PM 28.3768 -82.9742 150° Southeast  Level FlightAware Approximate
06:56PM 28.2814 -82.9127 150° Southeast  Level FlightAware Approximate
06:57PM 28.1860 -82.8513 150° Southeast  Level FlightAware Approximate
06:58PM 27.7981 -82.6114 149° Southeast 471 542 37,000  Level FlightAware ADS-B (KMCO)
06:58PM 27.7166 -82.5565 149° Southeast 472 543 37,000  Level FlightAware ADS-B (KMCO)
06:59PM 27.6412 -82.5062 149° Southeast 470 541 37,000  Level FlightAware ADS-B (KMCO)
07:01PM 27.4070 -82.3510 149° Southeast 468 539 37,000  Level FlightAware ADS-B (KMCO)
07:02PM 27.3292 -82.2996 150° Southeast 473 544 37,000  Level FlightAware ADS-B (KMCO)
07:03PM 27.2405 -82.2409 150° Southeast 475 547 37,000  Level FlightAware ADS-B (KMCO)
07:04PM 27.1339 -82.1707 150° Southeast 475 547 37,000  Level FlightAware ADS-B (KMCO)
07:05PM 27.0032 -82.0847 150° Southeast 472 543 37,000  Level FlightAware ADS-B (KMCO)
07:06PM 26.8850 -82.0072 150° Southeast 471 542 37,000  Level FlightAware ADS-B (KMCO)
07:07PM 26.8016 -81.9527 150° Southeast 471 542 37,000  Level FlightAware ADS-B (KMCO)
07:08PM 26.5975 -81.8288 158° South 462 532 37,000  Level FlightAware ADS-B (KMCO)
07:09PM 26.4715 -81.7891 170° South 444 511 37,000  Level FlightAware ADS-B (KMCO)
07:10PM 26.3814 -81.7787 178° South 433 498 37,000  Level FlightAware ADS-B (KMCO)
07:12PM 26.3286 -81.7786 191° South 419 482 37,000  Level FlightAware ADS-B (KMCO)
07:12PM 26.1341 -81.8088 197° South 414 476 37,000  Level FlightAware ADS-B (KMCO)
07:13PM 26.0686 -81.8308 197° South 415 478 37,000  Level FlightAware ADS-B (KMCO)
07:14PM 25.9775 -81.8616 197° South 415 478 37,000  Level FlightAware ADS-B (KMCO)
07:14PM 25.8975 -81.8886 197° South 415 478 37,000  Level FlightAware ADS-B (KMCO)
07:15PM 25.8216 -81.9142 197° South 416 479 37,000  Level FlightAware ADS-B (KMCO)
07:16PM 25.7212 -81.9481 197° South 416 479 37,000  Level FlightAware ADS-B (KMCO)
07:19PM 25.3822 -82.0650 180° South 426 490 37,000  Level Miami Center
07:20PM 25.2681 -82.1039 197° South 426 490 37,000  Level Miami Center
07:21PM 25.1456 -82.1444 197° South 426 490 37,000  Level Miami Center
07:22PM 25.0314 -82.1831 197° South 426 490 37,000 -720 Level Miami Center
07:25PM 24.7019 -82.2900 197° South 421 484 34,300 -1,200 Descending Miami Center
07:26PM 24.5919 -82.3239 196° South 421 484 32,400 -1,860 Descending Miami Center
07:27PM 24.4883 -82.3603 198° South 410 472 30,600 -1,860 Descending Miami Center
07:28PM 24.3847 -82.3944 197° South 403 464 28,700 -1,920 Descending Miami Center
07:30PM 24.2478 -82.4297 193° South  Level FlightAware Approximate
07:37PM 23.5118 -82.4531 172° South  Level FlightAware Approximate
07:38PM 23.4034 -82.4364 172° South  Level FlightAware Approximate
07:39PM 23.2944 -82.4244 175° South  Level FlightAware Approximate
07:40PM 23.1852 -82.4167 180° South  Level FlightAware Approximate
07:41PM 23.0766 -82.4053 170° South  Level FlightAware Approximate
07:42PM 22.9891 -82.4091 180° South  Level Estimated
07:43PM 22.9891 -82.4091 180° South  Level Estimated
07:44PM 22.9891 -82.4091 180° South  Level Estimated
07:45PM 22.9891 -82.4091 180° South  Level Estimated
07:46PM 22.9891 -82.4091 180° South  Level Estimated
07:47PM 22.9891 -82.4091 180° South  Level Estimated
07:48PM 22.9891 -82.4091 180° South  Level Estimated
07:49PM 22.9891 -82.4091 180° South  Level Estimated
07:50PM 22.9891 -82.4091 180° South  Level Estimated
07:51PM 22.9891 -82.4091 180° South  Level Estimated
07:52PM 22.9891 -82.4091 180° South  Level Estimated
07:53PM 22.9891 -82.4091 180° South  Level Estimated
07:54PM 22.9891 -82.4091 180° South  Level Estimated
07:55PM 22.9891 -82.4091 180° South  Level Estimated
07:56PM 22.9891 -82.4091 180° South  Level Estimated
07:57PM 22.9891 -82.4091 180° South  Level Estimated
07:58PM 22.9891 -82.4091 180° South  Level Estimated
07:59PM 22.9891 -82.4091 180° South  Level Estimated
08:00PM 22.9891 -82.4091 180° South  Level Estimated
08:01PM 22.9891 -82.4091 180° South  Level Estimated
08:02PM 22.9891 -82.4091 180° South  Level Estimated
08:03PM 22.9891 -82.4091 180° South  Level Estimated